Andalusia, Pennsylvania
Current Conditions -  °F | °C
As of 7:54 PM on Thursday 27 Nov 2014 (Local Time) from KPNE Reporting Station
Clear Clear  
Wind Chill: 28°   Ceiling: Unl
Heat Index: 34°   Visibility: 10mi
Dew Point: 25°   Wind: 7mph
Humidity: 70%   Direction: 300°WNW
Pressure: 30.1"   Gusts: NA
Location:  40.1068°N, 74.9379°W
Report Text: KPNE 280054Z AUTO 30006KT 10SM CLR 01/M04 A3010 RMK AO2 SLP193 T00111039 TSNO
Loading
Personal Weather Stations






























Interactive Weather Map New forecast layout! Learn more

10-Day Weather Forecast

Advertisements
Track Severe Weather on mobile